DTTJ

Details ICAO DTTJ (DJE)
Name Djerba Zarzis
Region Tunisia
Timezone Africa/Tunis (UTC+1.0)
Plans Departing 132
Arriving 195
Stats Elevation 18 ft / 5 m (AMSL)
Location 33.875447° 10.777153°
Runways 1
Magnetic Variation 2.327° E
Sunrise 2017-12-13 06:14:42 UTC / 2017-12-13 07:14:42 Local
Sunset 2017-12-13 16:10:18 UTC / 2017-12-13 17:10:18 Local
Advertisement - Login to hide

Runways

ID Width Length Bearing (true) Bearing (mag) Surface Threshold Offset Overrun Length
09 148 ft / 45 m 10,191 ft / 3,106 m 88.28° 85.95° Asphalt 0 ft / 0 m 197 ft / 60 m
27 148 ft / 45 m 10,191 ft / 3,106 m 268.30° 265.97° Asphalt 0 ft / 0 m 197 ft / 60 m

Approach Navaids

Runway Type Ident Frequency Range Bearing (true) Bearing (mag) Slope Elevation
09 Localiser JAZ 109.50 MHz 18 nm / 33 km 88.31° 85.98° - 18 ft / 5 m (AMSL)
09 Glidescope JAZ 109.50 MHz 10 nm / 19 km 88.29° 85.96° 3.00° 18 ft / 5 m (AMSL)

Map

Weather


0- 5 10 15 20 25 30 35+ Temperature / ° C

Clouds and Precipitation
Forecast for 2017-12-13 18:00 UTC. Updated an hour ago

Ground ~20,000 ft ~40,000 ft Winds

METAR

DTTJ 131800Z 04007KT CAVOK 16/13 Q1024 NOSIG

TAF

TAF DTTJ 131700Z 1318/1418 04015KT CAVOK BECMG 1400/1402 18008KT

Frequencies

Tower 118.15 MHz DJERBA AIRPORT TWR
Approach 120.30 MHz DJERBA APP
Warning: Do not use this data for real-world aviation or navigation. No guarantee of current accuracy is given.